<?xml version="1.0" encoding="UTF-8" ?>
<gpx version="1.1" xmlns:xsi="http://www.w3.org/2001/XMLSchema-instance" 
    xmlns="http://www.topografix.com/GPX/1/1"
    xsi:schemaLocation="http://www.topografix.com/GPX/1/1 http://www.topografix.com/GPX/1/1/gpx.xsd" 
    creator="Openrunner - https://www.openrunner.com" >	<trk>
	                   <name>Saint Genis l&#039;Argentière - Sentier de l&#039;Aqueduc-21965493</name>
						<trkseg>
					<trkpt lat="45.709840" lon="4.492750">
						<ele>480</ele>
						<time>2025-07-21T12:44:09Z</time>
					</trkpt>
					<trkpt lat="45.709860" lon="4.492860">
						<ele>481</ele>
						<time>2025-07-21T12:44:20Z</time>
					</trkpt>
					<trkpt lat="45.709840" lon="4.492970">
						<ele>482</ele>
						<time>2025-07-21T12:44:30Z</time>
					</trkpt>
					<trkpt lat="45.709740" lon="4.492840">
						<ele>481</ele>
						<time>2025-07-21T12:44:48Z</time>
					</trkpt>
					<trkpt lat="45.709600" lon="4.492730">
						<ele>480</ele>
						<time>2025-07-21T12:45:10Z</time>
					</trkpt>
					<trkpt lat="45.709530" lon="4.492610">
						<ele>480</ele>
						<time>2025-07-21T12:45:24Z</time>
					</trkpt>
					<trkpt lat="45.709490" lon="4.492530">
						<ele>479</ele>
						<time>2025-07-21T12:45:33Z</time>
					</trkpt>
					<trkpt lat="45.709450" lon="4.492500">
						<ele>479</ele>
						<time>2025-07-21T12:45:39Z</time>
					</trkpt>
					<trkpt lat="45.709390" lon="4.492400">
						<ele>479</ele>
						<time>2025-07-21T12:45:52Z</time>
					</trkpt>
					<trkpt lat="45.709370" lon="4.492370">
						<ele>479</ele>
						<time>2025-07-21T12:45:55Z</time>
					</trkpt>
					<trkpt lat="45.709390" lon="4.492400">
						<ele>479</ele>
						<time>2025-07-21T12:45:59Z</time>
					</trkpt>
					<trkpt lat="45.709450" lon="4.492500">
						<ele>479</ele>
						<time>2025-07-21T12:46:12Z</time>
					</trkpt>
					<trkpt lat="45.709280" lon="4.492580">
						<ele>479</ele>
						<time>2025-07-21T12:46:35Z</time>
					</trkpt>
					<trkpt lat="45.709100" lon="4.492710">
						<ele>482</ele>
						<time>2025-07-21T12:47:02Z</time>
					</trkpt>
					<trkpt lat="45.708780" lon="4.493170">
						<ele>488</ele>
						<time>2025-07-21T12:48:03Z</time>
					</trkpt>
					<trkpt lat="45.708750" lon="4.493220">
						<ele>488</ele>
						<time>2025-07-21T12:48:09Z</time>
					</trkpt>
					<trkpt lat="45.708670" lon="4.493120">
						<ele>489</ele>
						<time>2025-07-21T12:48:23Z</time>
					</trkpt>
					<trkpt lat="45.708660" lon="4.492970">
						<ele>490</ele>
						<time>2025-07-21T12:48:37Z</time>
					</trkpt>
					<trkpt lat="45.708700" lon="4.492830">
						<ele>490</ele>
						<time>2025-07-21T12:48:51Z</time>
					</trkpt>
					<trkpt lat="45.708720" lon="4.492650">
						<ele>490</ele>
						<time>2025-07-21T12:49:08Z</time>
					</trkpt>
					<trkpt lat="45.708660" lon="4.491800">
						<ele>493</ele>
						<time>2025-07-21T12:50:28Z</time>
					</trkpt>
					<trkpt lat="45.708500" lon="4.491440">
						<ele>495</ele>
						<time>2025-07-21T12:51:08Z</time>
					</trkpt>
					<trkpt lat="45.708210" lon="4.491030">
						<ele>497</ele>
						<time>2025-07-21T12:52:02Z</time>
					</trkpt>
					<trkpt lat="45.708110" lon="4.490960">
						<ele>497</ele>
						<time>2025-07-21T12:52:17Z</time>
					</trkpt>
					<trkpt lat="45.706780" lon="4.489770">
						<ele>495</ele>
						<time>2025-07-21T12:55:46Z</time>
					</trkpt>
					<trkpt lat="45.706060" lon="4.489410">
						<ele>497</ele>
						<time>2025-07-21T12:57:28Z</time>
					</trkpt>
					<trkpt lat="45.705660" lon="4.489160">
						<ele>501</ele>
						<time>2025-07-21T12:58:26Z</time>
					</trkpt>
					<trkpt lat="45.705660" lon="4.489160">
						<ele>501</ele>
						<time>2025-07-21T12:58:26Z</time>
					</trkpt>
					<trkpt lat="45.705590" lon="4.489110">
						<ele>502</ele>
						<time>2025-07-21T12:58:37Z</time>
					</trkpt>
					<trkpt lat="45.705460" lon="4.489140">
						<ele>504</ele>
						<time>2025-07-21T12:58:54Z</time>
					</trkpt>
					<trkpt lat="45.705300" lon="4.489140">
						<ele>507</ele>
						<time>2025-07-21T12:59:16Z</time>
					</trkpt>
					<trkpt lat="45.704720" lon="4.488870">
						<ele>518</ele>
						<time>2025-07-21T13:00:37Z</time>
					</trkpt>
					<trkpt lat="45.704510" lon="4.488850">
						<ele>520</ele>
						<time>2025-07-21T13:01:05Z</time>
					</trkpt>
					<trkpt lat="45.703790" lon="4.488650">
						<ele>529</ele>
						<time>2025-07-21T13:02:43Z</time>
					</trkpt>
					<trkpt lat="45.703610" lon="4.488660">
						<ele>531</ele>
						<time>2025-07-21T13:03:07Z</time>
					</trkpt>
					<trkpt lat="45.703400" lon="4.488740">
						<ele>532</ele>
						<time>2025-07-21T13:03:36Z</time>
					</trkpt>
					<trkpt lat="45.703400" lon="4.488660">
						<ele>533</ele>
						<time>2025-07-21T13:03:43Z</time>
					</trkpt>
					<trkpt lat="45.703520" lon="4.488460">
						<ele>534</ele>
						<time>2025-07-21T13:04:08Z</time>
					</trkpt>
					<trkpt lat="45.703690" lon="4.488210">
						<ele>534</ele>
						<time>2025-07-21T13:04:41Z</time>
					</trkpt>
					<trkpt lat="45.703970" lon="4.487980">
						<ele>532</ele>
						<time>2025-07-21T13:05:24Z</time>
					</trkpt>
					<trkpt lat="45.704000" lon="4.487880">
						<ele>531</ele>
						<time>2025-07-21T13:05:34Z</time>
					</trkpt>
					<trkpt lat="45.704010" lon="4.487830">
						<ele>531</ele>
						<time>2025-07-21T13:05:39Z</time>
					</trkpt>
					<trkpt lat="45.704000" lon="4.487750">
						<ele>531</ele>
						<time>2025-07-21T13:05:46Z</time>
					</trkpt>
					<trkpt lat="45.703980" lon="4.487690">
						<ele>532</ele>
						<time>2025-07-21T13:05:52Z</time>
					</trkpt>
					<trkpt lat="45.703880" lon="4.487560">
						<ele>532</ele>
						<time>2025-07-21T13:06:10Z</time>
					</trkpt>
					<trkpt lat="45.703810" lon="4.487480">
						<ele>533</ele>
						<time>2025-07-21T13:06:22Z</time>
					</trkpt>
					<trkpt lat="45.703700" lon="4.487390">
						<ele>532</ele>
						<time>2025-07-21T13:06:39Z</time>
					</trkpt>
					<trkpt lat="45.703080" lon="4.487040">
						<ele>534</ele>
						<time>2025-07-21T13:08:08Z</time>
					</trkpt>
					<trkpt lat="45.702720" lon="4.486790">
						<ele>536</ele>
						<time>2025-07-21T13:09:02Z</time>
					</trkpt>
					<trkpt lat="45.702490" lon="4.486520">
						<ele>536</ele>
						<time>2025-07-21T13:09:41Z</time>
					</trkpt>
					<trkpt lat="45.702360" lon="4.486340">
						<ele>536</ele>
						<time>2025-07-21T13:10:05Z</time>
					</trkpt>
					<trkpt lat="45.702320" lon="4.486250">
						<ele>536</ele>
						<time>2025-07-21T13:10:15Z</time>
					</trkpt>
					<trkpt lat="45.702290" lon="4.486090">
						<ele>535</ele>
						<time>2025-07-21T13:10:31Z</time>
					</trkpt>
					<trkpt lat="45.702290" lon="4.485970">
						<ele>533</ele>
						<time>2025-07-21T13:10:42Z</time>
					</trkpt>
					<trkpt lat="45.702300" lon="4.485490">
						<ele>531</ele>
						<time>2025-07-21T13:11:27Z</time>
					</trkpt>
					<trkpt lat="45.702290" lon="4.485370">
						<ele>531</ele>
						<time>2025-07-21T13:11:38Z</time>
					</trkpt>
					<trkpt lat="45.702280" lon="4.485250">
						<ele>531</ele>
						<time>2025-07-21T13:11:49Z</time>
					</trkpt>
					<trkpt lat="45.702250" lon="4.485130">
						<ele>531</ele>
						<time>2025-07-21T13:12:01Z</time>
					</trkpt>
					<trkpt lat="45.702190" lon="4.484980">
						<ele>532</ele>
						<time>2025-07-21T13:12:17Z</time>
					</trkpt>
					<trkpt lat="45.702100" lon="4.484770">
						<ele>531</ele>
						<time>2025-07-21T13:12:40Z</time>
					</trkpt>
					<trkpt lat="45.701990" lon="4.484600">
						<ele>530</ele>
						<time>2025-07-21T13:13:02Z</time>
					</trkpt>
					<trkpt lat="45.701910" lon="4.484510">
						<ele>530</ele>
						<time>2025-07-21T13:13:15Z</time>
					</trkpt>
					<trkpt lat="45.701830" lon="4.484440">
						<ele>529</ele>
						<time>2025-07-21T13:13:28Z</time>
					</trkpt>
					<trkpt lat="45.701730" lon="4.484370">
						<ele>528</ele>
						<time>2025-07-21T13:13:43Z</time>
					</trkpt>
					<trkpt lat="45.701630" lon="4.484320">
						<ele>527</ele>
						<time>2025-07-21T13:13:57Z</time>
					</trkpt>
					<trkpt lat="45.701520" lon="4.484280">
						<ele>526</ele>
						<time>2025-07-21T13:14:12Z</time>
					</trkpt>
					<trkpt lat="45.701420" lon="4.484270">
						<ele>526</ele>
						<time>2025-07-21T13:14:25Z</time>
					</trkpt>
					<trkpt lat="45.701230" lon="4.484260">
						<ele>525</ele>
						<time>2025-07-21T13:14:51Z</time>
					</trkpt>
					<trkpt lat="45.700740" lon="4.484280">
						<ele>523</ele>
						<time>2025-07-21T13:15:56Z</time>
					</trkpt>
					<trkpt lat="45.700590" lon="4.484350">
						<ele>523</ele>
						<time>2025-07-21T13:16:17Z</time>
					</trkpt>
					<trkpt lat="45.700450" lon="4.484430">
						<ele>523</ele>
						<time>2025-07-21T13:16:37Z</time>
					</trkpt>
					<trkpt lat="45.700220" lon="4.484650">
						<ele>525</ele>
						<time>2025-07-21T13:17:14Z</time>
					</trkpt>
					<trkpt lat="45.700170" lon="4.484670">
						<ele>525</ele>
						<time>2025-07-21T13:17:21Z</time>
					</trkpt>
					<trkpt lat="45.699760" lon="4.484610">
						<ele>525</ele>
						<time>2025-07-21T13:18:16Z</time>
					</trkpt>
					<trkpt lat="45.699640" lon="4.484610">
						<ele>526</ele>
						<time>2025-07-21T13:18:32Z</time>
					</trkpt>
					<trkpt lat="45.699580" lon="4.484570">
						<ele>526</ele>
						<time>2025-07-21T13:18:41Z</time>
					</trkpt>
					<trkpt lat="45.699520" lon="4.484490">
						<ele>525</ele>
						<time>2025-07-21T13:18:52Z</time>
					</trkpt>
					<trkpt lat="45.699380" lon="4.484220">
						<ele>520</ele>
						<time>2025-07-21T13:19:23Z</time>
					</trkpt>
					<trkpt lat="45.699200" lon="4.483990">
						<ele>516</ele>
						<time>2025-07-21T13:19:55Z</time>
					</trkpt>
					<trkpt lat="45.699090" lon="4.483910">
						<ele>515</ele>
						<time>2025-07-21T13:20:12Z</time>
					</trkpt>
					<trkpt lat="45.698930" lon="4.483840">
						<ele>515</ele>
						<time>2025-07-21T13:20:34Z</time>
					</trkpt>
					<trkpt lat="45.698650" lon="4.483810">
						<ele>517</ele>
						<time>2025-07-21T13:21:12Z</time>
					</trkpt>
					<trkpt lat="45.698340" lon="4.483760">
						<ele>519</ele>
						<time>2025-07-21T13:21:53Z</time>
					</trkpt>
					<trkpt lat="45.698220" lon="4.483760">
						<ele>520</ele>
						<time>2025-07-21T13:22:09Z</time>
					</trkpt>
					<trkpt lat="45.698080" lon="4.483720">
						<ele>519</ele>
						<time>2025-07-21T13:22:28Z</time>
					</trkpt>
					<trkpt lat="45.697790" lon="4.483690">
						<ele>520</ele>
						<time>2025-07-21T13:23:07Z</time>
					</trkpt>
					<trkpt lat="45.697110" lon="4.483700">
						<ele>520</ele>
						<time>2025-07-21T13:24:38Z</time>
					</trkpt>
					<trkpt lat="45.696790" lon="4.483720">
						<ele>519</ele>
						<time>2025-07-21T13:25:21Z</time>
					</trkpt>
					<trkpt lat="45.696670" lon="4.483780">
						<ele>519</ele>
						<time>2025-07-21T13:25:38Z</time>
					</trkpt>
					<trkpt lat="45.696500" lon="4.483900">
						<ele>520</ele>
						<time>2025-07-21T13:26:03Z</time>
					</trkpt>
					<trkpt lat="45.696230" lon="4.484240">
						<ele>523</ele>
						<time>2025-07-21T13:26:51Z</time>
					</trkpt>
					<trkpt lat="45.696020" lon="4.484270">
						<ele>519</ele>
						<time>2025-07-21T13:27:19Z</time>
					</trkpt>
					<trkpt lat="45.695860" lon="4.484320">
						<ele>517</ele>
						<time>2025-07-21T13:27:41Z</time>
					</trkpt>
					<trkpt lat="45.695780" lon="4.484380">
						<ele>518</ele>
						<time>2025-07-21T13:27:53Z</time>
					</trkpt>
					<trkpt lat="45.695610" lon="4.484510">
						<ele>521</ele>
						<time>2025-07-21T13:28:19Z</time>
					</trkpt>
					<trkpt lat="45.695420" lon="4.484810">
						<ele>523</ele>
						<time>2025-07-21T13:28:57Z</time>
					</trkpt>
					<trkpt lat="45.695320" lon="4.485210">
						<ele>525</ele>
						<time>2025-07-21T13:29:36Z</time>
					</trkpt>
					<trkpt lat="45.694690" lon="4.486330">
						<ele>529</ele>
						<time>2025-07-21T13:31:50Z</time>
					</trkpt>
					<trkpt lat="45.694620" lon="4.486470">
						<ele>530</ele>
						<time>2025-07-21T13:32:06Z</time>
					</trkpt>
					<trkpt lat="45.694580" lon="4.487650">
						<ele>540</ele>
						<time>2025-07-21T13:33:56Z</time>
					</trkpt>
					<trkpt lat="45.694410" lon="4.488280">
						<ele>540</ele>
						<time>2025-07-21T13:34:59Z</time>
					</trkpt>
					<trkpt lat="45.694380" lon="4.488880">
						<ele>546</ele>
						<time>2025-07-21T13:35:55Z</time>
					</trkpt>
					<trkpt lat="45.694120" lon="4.489690">
						<ele>549</ele>
						<time>2025-07-21T13:37:18Z</time>
					</trkpt>
					<trkpt lat="45.693760" lon="4.490550">
						<ele>553</ele>
						<time>2025-07-21T13:38:52Z</time>
					</trkpt>
					<trkpt lat="45.693740" lon="4.490860">
						<ele>556</ele>
						<time>2025-07-21T13:39:21Z</time>
					</trkpt>
					<trkpt lat="45.693620" lon="4.491530">
						<ele>558</ele>
						<time>2025-07-21T13:40:25Z</time>
					</trkpt>
					<trkpt lat="45.693000" lon="4.494490">
						<ele>572</ele>
						<time>2025-07-21T13:45:13Z</time>
					</trkpt>
					<trkpt lat="45.692520" lon="4.496050">
						<ele>576</ele>
						<time>2025-07-21T13:47:52Z</time>
					</trkpt>
					<trkpt lat="45.691830" lon="4.497510">
						<ele>584</ele>
						<time>2025-07-21T13:50:37Z</time>
					</trkpt>
					<trkpt lat="45.691750" lon="4.497830">
						<ele>585</ele>
						<time>2025-07-21T13:51:08Z</time>
					</trkpt>
					<trkpt lat="45.691720" lon="4.498510">
						<ele>591</ele>
						<time>2025-07-21T13:52:12Z</time>
					</trkpt>
					<trkpt lat="45.691590" lon="4.499190">
						<ele>596</ele>
						<time>2025-07-21T13:53:18Z</time>
					</trkpt>
					<trkpt lat="45.691640" lon="4.499130">
						<ele>595</ele>
						<time>2025-07-21T13:53:26Z</time>
					</trkpt>
					<trkpt lat="45.691810" lon="4.498920">
						<ele>599</ele>
						<time>2025-07-21T13:53:56Z</time>
					</trkpt>
					<trkpt lat="45.692080" lon="4.498740">
						<ele>607</ele>
						<time>2025-07-21T13:54:36Z</time>
					</trkpt>
					<trkpt lat="45.692190" lon="4.498510">
						<ele>608</ele>
						<time>2025-07-21T13:55:02Z</time>
					</trkpt>
					<trkpt lat="45.693150" lon="4.497160">
						<ele>620</ele>
						<time>2025-07-21T13:58:02Z</time>
					</trkpt>
					<trkpt lat="45.693570" lon="4.496460">
						<ele>621</ele>
						<time>2025-07-21T13:59:28Z</time>
					</trkpt>
					<trkpt lat="45.693740" lon="4.496390">
						<ele>627</ele>
						<time>2025-07-21T13:59:51Z</time>
					</trkpt>
					<trkpt lat="45.693840" lon="4.496380">
						<ele>630</ele>
						<time>2025-07-21T14:00:05Z</time>
					</trkpt>
					<trkpt lat="45.694080" lon="4.496190">
						<ele>636</ele>
						<time>2025-07-21T14:00:41Z</time>
					</trkpt>
					<trkpt lat="45.694220" lon="4.495780">
						<ele>634</ele>
						<time>2025-07-21T14:01:24Z</time>
					</trkpt>
					<trkpt lat="45.694360" lon="4.495550">
						<ele>637</ele>
						<time>2025-07-21T14:01:52Z</time>
					</trkpt>
					<trkpt lat="45.694500" lon="4.495460">
						<ele>641</ele>
						<time>2025-07-21T14:02:13Z</time>
					</trkpt>
					<trkpt lat="45.694580" lon="4.495380">
						<ele>643</ele>
						<time>2025-07-21T14:02:26Z</time>
					</trkpt>
					<trkpt lat="45.694670" lon="4.495110">
						<ele>644</ele>
						<time>2025-07-21T14:02:53Z</time>
					</trkpt>
					<trkpt lat="45.695240" lon="4.494510">
						<ele>657</ele>
						<time>2025-07-21T14:04:28Z</time>
					</trkpt>
					<trkpt lat="45.695880" lon="4.494060">
						<ele>677</ele>
						<time>2025-07-21T14:06:03Z</time>
					</trkpt>
					<trkpt lat="45.695930" lon="4.493990">
						<ele>678</ele>
						<time>2025-07-21T14:06:12Z</time>
					</trkpt>
					<trkpt lat="45.696400" lon="4.493300">
						<ele>686</ele>
						<time>2025-07-21T14:07:42Z</time>
					</trkpt>
					<trkpt lat="45.696710" lon="4.492530">
						<ele>692</ele>
						<time>2025-07-21T14:09:05Z</time>
					</trkpt>
					<trkpt lat="45.696920" lon="4.492290">
						<ele>694</ele>
						<time>2025-07-21T14:09:41Z</time>
					</trkpt>
					<trkpt lat="45.697130" lon="4.492140">
						<ele>697</ele>
						<time>2025-07-21T14:10:12Z</time>
					</trkpt>
					<trkpt lat="45.697300" lon="4.492110">
						<ele>700</ele>
						<time>2025-07-21T14:10:35Z</time>
					</trkpt>
					<trkpt lat="45.697400" lon="4.492230">
						<ele>703</ele>
						<time>2025-07-21T14:10:52Z</time>
					</trkpt>
					<trkpt lat="45.697500" lon="4.492470">
						<ele>709</ele>
						<time>2025-07-21T14:11:19Z</time>
					</trkpt>
					<trkpt lat="45.697570" lon="4.492350">
						<ele>706</ele>
						<time>2025-07-21T14:11:33Z</time>
					</trkpt>
					<trkpt lat="45.697590" lon="4.492330">
						<ele>706</ele>
						<time>2025-07-21T14:11:36Z</time>
					</trkpt>
					<trkpt lat="45.698120" lon="4.490710">
						<ele>682</ele>
						<time>2025-07-21T14:14:23Z</time>
					</trkpt>
					<trkpt lat="45.698440" lon="4.489910">
						<ele>669</ele>
						<time>2025-07-21T14:15:49Z</time>
					</trkpt>
					<trkpt lat="45.698640" lon="4.489710">
						<ele>664</ele>
						<time>2025-07-21T14:16:22Z</time>
					</trkpt>
					<trkpt lat="45.699140" lon="4.489370">
						<ele>655</ele>
						<time>2025-07-21T14:17:35Z</time>
					</trkpt>
					<trkpt lat="45.699540" lon="4.489170">
						<ele>646</ele>
						<time>2025-07-21T14:18:32Z</time>
					</trkpt>
					<trkpt lat="45.699870" lon="4.489260">
						<ele>642</ele>
						<time>2025-07-21T14:19:17Z</time>
					</trkpt>
					<trkpt lat="45.700190" lon="4.489300">
						<ele>635</ele>
						<time>2025-07-21T14:20:00Z</time>
					</trkpt>
					<trkpt lat="45.700350" lon="4.489400">
						<ele>630</ele>
						<time>2025-07-21T14:20:23Z</time>
					</trkpt>
					<trkpt lat="45.700490" lon="4.489330">
						<ele>626</ele>
						<time>2025-07-21T14:20:43Z</time>
					</trkpt>
					<trkpt lat="45.700350" lon="4.489400">
						<ele>630</ele>
						<time>2025-07-21T14:21:03Z</time>
					</trkpt>
					<trkpt lat="45.700270" lon="4.489650">
						<ele>632</ele>
						<time>2025-07-21T14:21:28Z</time>
					</trkpt>
					<trkpt lat="45.699920" lon="4.490130">
						<ele>642</ele>
						<time>2025-07-21T14:22:33Z</time>
					</trkpt>
					<trkpt lat="45.699730" lon="4.490600">
						<ele>645</ele>
						<time>2025-07-21T14:23:23Z</time>
					</trkpt>
					<trkpt lat="45.699710" lon="4.491060">
						<ele>646</ele>
						<time>2025-07-21T14:24:06Z</time>
					</trkpt>
					<trkpt lat="45.699750" lon="4.491530">
						<ele>645</ele>
						<time>2025-07-21T14:24:51Z</time>
					</trkpt>
					<trkpt lat="45.699810" lon="4.491950">
						<ele>648</ele>
						<time>2025-07-21T14:25:30Z</time>
					</trkpt>
					<trkpt lat="45.700080" lon="4.492240">
						<ele>643</ele>
						<time>2025-07-21T14:26:16Z</time>
					</trkpt>
					<trkpt lat="45.700430" lon="4.492470">
						<ele>639</ele>
						<time>2025-07-21T14:27:07Z</time>
					</trkpt>
					<trkpt lat="45.700930" lon="4.493120">
						<ele>644</ele>
						<time>2025-07-21T14:28:37Z</time>
					</trkpt>
					<trkpt lat="45.700930" lon="4.493120">
						<ele>644</ele>
						<time>2025-07-21T14:28:37Z</time>
					</trkpt>
					<trkpt lat="45.701120" lon="4.493090">
						<ele>641</ele>
						<time>2025-07-21T14:29:03Z</time>
					</trkpt>
					<trkpt lat="45.702230" lon="4.493160">
						<ele>632</ele>
						<time>2025-07-21T14:31:31Z</time>
					</trkpt>
					<trkpt lat="45.702650" lon="4.493390">
						<ele>633</ele>
						<time>2025-07-21T14:32:31Z</time>
					</trkpt>
					<trkpt lat="45.702780" lon="4.493650">
						<ele>634</ele>
						<time>2025-07-21T14:33:01Z</time>
					</trkpt>
					<trkpt lat="45.702910" lon="4.493880">
						<ele>634</ele>
						<time>2025-07-21T14:33:28Z</time>
					</trkpt>
					<trkpt lat="45.703000" lon="4.494290">
						<ele>634</ele>
						<time>2025-07-21T14:34:08Z</time>
					</trkpt>
					<trkpt lat="45.702880" lon="4.494120">
						<ele>638</ele>
						<time>2025-07-21T14:34:31Z</time>
					</trkpt>
					<trkpt lat="45.703000" lon="4.494290">
						<ele>634</ele>
						<time>2025-07-21T14:34:53Z</time>
					</trkpt>
					<trkpt lat="45.703020" lon="4.494600">
						<ele>631</ele>
						<time>2025-07-21T14:35:22Z</time>
					</trkpt>
					<trkpt lat="45.702910" lon="4.494950">
						<ele>634</ele>
						<time>2025-07-21T14:35:58Z</time>
					</trkpt>
					<trkpt lat="45.702610" lon="4.495540">
						<ele>638</ele>
						<time>2025-07-21T14:37:06Z</time>
					</trkpt>
					<trkpt lat="45.702500" lon="4.495920">
						<ele>638</ele>
						<time>2025-07-21T14:37:44Z</time>
					</trkpt>
					<trkpt lat="45.702470" lon="4.496940">
						<ele>634</ele>
						<time>2025-07-21T14:39:20Z</time>
					</trkpt>
					<trkpt lat="45.702540" lon="4.497370">
						<ele>633</ele>
						<time>2025-07-21T14:40:01Z</time>
					</trkpt>
					<trkpt lat="45.702470" lon="4.497800">
						<ele>638</ele>
						<time>2025-07-21T14:40:42Z</time>
					</trkpt>
					<trkpt lat="45.702510" lon="4.498030">
						<ele>639</ele>
						<time>2025-07-21T14:41:04Z</time>
					</trkpt>
					<trkpt lat="45.702570" lon="4.498210">
						<ele>640</ele>
						<time>2025-07-21T14:41:23Z</time>
					</trkpt>
					<trkpt lat="45.702620" lon="4.498100">
						<ele>639</ele>
						<time>2025-07-21T14:41:35Z</time>
					</trkpt>
					<trkpt lat="45.702760" lon="4.497790">
						<ele>634</ele>
						<time>2025-07-21T14:42:09Z</time>
					</trkpt>
					<trkpt lat="45.703570" lon="4.497100">
						<ele>608</ele>
						<time>2025-07-21T14:44:15Z</time>
					</trkpt>
					<trkpt lat="45.704280" lon="4.496950">
						<ele>590</ele>
						<time>2025-07-21T14:45:51Z</time>
					</trkpt>
					<trkpt lat="45.704560" lon="4.496950">
						<ele>585</ele>
						<time>2025-07-21T14:46:28Z</time>
					</trkpt>
					<trkpt lat="45.704980" lon="4.496910">
						<ele>577</ele>
						<time>2025-07-21T14:47:24Z</time>
					</trkpt>
					<trkpt lat="45.705260" lon="4.496920">
						<ele>573</ele>
						<time>2025-07-21T14:48:02Z</time>
					</trkpt>
					<trkpt lat="45.705700" lon="4.497050">
						<ele>568</ele>
						<time>2025-07-21T14:49:02Z</time>
					</trkpt>
					<trkpt lat="45.705860" lon="4.497050">
						<ele>566</ele>
						<time>2025-07-21T14:49:23Z</time>
					</trkpt>
					<trkpt lat="45.706290" lon="4.497060">
						<ele>558</ele>
						<time>2025-07-21T14:50:20Z</time>
					</trkpt>
					<trkpt lat="45.706650" lon="4.497030">
						<ele>551</ele>
						<time>2025-07-21T14:51:08Z</time>
					</trkpt>
					<trkpt lat="45.706800" lon="4.497070">
						<ele>549</ele>
						<time>2025-07-21T14:51:29Z</time>
					</trkpt>
					<trkpt lat="45.707110" lon="4.497260">
						<ele>547</ele>
						<time>2025-07-21T14:52:14Z</time>
					</trkpt>
					<trkpt lat="45.707460" lon="4.497420">
						<ele>542</ele>
						<time>2025-07-21T14:53:03Z</time>
					</trkpt>
					<trkpt lat="45.707630" lon="4.497450">
						<ele>540</ele>
						<time>2025-07-21T14:53:26Z</time>
					</trkpt>
					<trkpt lat="45.707840" lon="4.497410">
						<ele>538</ele>
						<time>2025-07-21T14:53:54Z</time>
					</trkpt>
					<trkpt lat="45.708050" lon="4.497270">
						<ele>535</ele>
						<time>2025-07-21T14:54:25Z</time>
					</trkpt>
					<trkpt lat="45.708220" lon="4.497250">
						<ele>533</ele>
						<time>2025-07-21T14:54:48Z</time>
					</trkpt>
					<trkpt lat="45.708500" lon="4.497280">
						<ele>530</ele>
						<time>2025-07-21T14:55:25Z</time>
					</trkpt>
					<trkpt lat="45.708710" lon="4.497360">
						<ele>528</ele>
						<time>2025-07-21T14:55:54Z</time>
					</trkpt>
					<trkpt lat="45.708920" lon="4.497410">
						<ele>526</ele>
						<time>2025-07-21T14:56:23Z</time>
					</trkpt>
					<trkpt lat="45.709400" lon="4.497300">
						<ele>520</ele>
						<time>2025-07-21T14:57:27Z</time>
					</trkpt>
					<trkpt lat="45.709550" lon="4.497220">
						<ele>518</ele>
						<time>2025-07-21T14:57:49Z</time>
					</trkpt>
					<trkpt lat="45.709670" lon="4.497100">
						<ele>517</ele>
						<time>2025-07-21T14:58:08Z</time>
					</trkpt>
					<trkpt lat="45.709770" lon="4.496930">
						<ele>515</ele>
						<time>2025-07-21T14:58:29Z</time>
					</trkpt>
					<trkpt lat="45.710160" lon="4.495850">
						<ele>505</ele>
						<time>2025-07-21T15:00:22Z</time>
					</trkpt>
					<trkpt lat="45.710280" lon="4.495560">
						<ele>502</ele>
						<time>2025-07-21T15:00:54Z</time>
					</trkpt>
					<trkpt lat="45.710500" lon="4.495240">
						<ele>498</ele>
						<time>2025-07-21T15:01:36Z</time>
					</trkpt>
					<trkpt lat="45.710840" lon="4.494760">
						<ele>494</ele>
						<time>2025-07-21T15:02:39Z</time>
					</trkpt>
					<trkpt lat="45.710820" lon="4.494660">
						<ele>494</ele>
						<time>2025-07-21T15:02:49Z</time>
					</trkpt>
					<trkpt lat="45.710770" lon="4.494430">
						<ele>493</ele>
						<time>2025-07-21T15:03:11Z</time>
					</trkpt>
					<trkpt lat="45.710720" lon="4.494240">
						<ele>492</ele>
						<time>2025-07-21T15:03:30Z</time>
					</trkpt>
					<trkpt lat="45.710640" lon="4.494120">
						<ele>492</ele>
						<time>2025-07-21T15:03:46Z</time>
					</trkpt>
					<trkpt lat="45.710420" lon="4.493590">
						<ele>488</ele>
						<time>2025-07-21T15:04:43Z</time>
					</trkpt>
					<trkpt lat="45.710320" lon="4.493430">
						<ele>487</ele>
						<time>2025-07-21T15:05:03Z</time>
					</trkpt>
					<trkpt lat="45.710220" lon="4.493360">
						<ele>486</ele>
						<time>2025-07-21T15:05:18Z</time>
					</trkpt>
					<trkpt lat="45.710110" lon="4.493270">
						<ele>484</ele>
						<time>2025-07-21T15:05:35Z</time>
					</trkpt>
					<trkpt lat="45.710010" lon="4.493160">
						<ele>483</ele>
						<time>2025-07-21T15:05:52Z</time>
					</trkpt>
					<trkpt lat="45.709840" lon="4.492970">
						<ele>482</ele>
						<time>2025-07-21T15:06:21Z</time>
					</trkpt>
					<trkpt lat="45.709860" lon="4.492860">
						<ele>481</ele>
						<time>2025-07-21T15:06:31Z</time>
					</trkpt>
					<trkpt lat="45.709840" lon="4.492750">
						<ele>480</ele>
						<time>2025-07-21T15:06:42Z</time>
					</trkpt>
					</trkseg>
				</trk>
			</gpx>